createdAt,value
2019-04-03T00:00:51.149Z,8.60
2019-04-03T00:03:24.250Z,8.60
2019-04-03T00:05:55.204Z,8.50
2019-04-03T00:08:25.013Z,8.60
2019-04-03T00:10:54.900Z,8.50
2019-04-03T00:13:26.110Z,8.60
2019-04-03T00:15:56.359Z,8.60
2019-04-03T00:18:25.608Z,8.50
2019-04-03T00:20:54.929Z,8.60
2019-04-03T00:23:25.997Z,8.50
2019-04-03T00:25:55.341Z,8.40
2019-04-03T00:28:24.975Z,8.50
2019-04-03T00:31:01.379Z,8.40
2019-04-03T00:33:30.590Z,8.40
2019-04-03T00:36:00.060Z,8.50
2019-04-03T00:38:29.431Z,8.50
2019-04-03T00:40:58.676Z,8.60
2019-04-03T00:43:27.982Z,8.60
2019-04-03T00:45:59.229Z,8.50
2019-04-03T00:48:29.635Z,8.50
2019-04-03T00:50:58.981Z,8.40
2019-04-03T00:53:28.317Z,8.50
2019-04-03T00:55:58.466Z,8.40
2019-04-03T00:58:35.688Z,8.30
2019-04-03T01:01:09.454Z,8.30
2019-04-03T01:03:40.493Z,8.30
2019-04-03T01:06:09.724Z,8.30
2019-04-03T01:08:39.008Z,8.30
2019-04-03T01:11:08.507Z,8.20
2019-04-03T01:13:38.962Z,8.20
2019-04-03T01:16:09.288Z,8.10
2019-04-03T01:18:38.635Z,8.10
2019-04-03T01:21:10.844Z,8.00
2019-04-03T01:23:40.279Z,8.20
2019-04-03T01:26:10.277Z,8.20
2019-04-03T01:28:42.303Z,8.10
2019-04-03T01:31:14.238Z,8.00
2019-04-03T01:33:46.119Z,8.00
2019-04-03T01:36:17.140Z,8.00
2019-04-03T01:38:47.979Z,7.90
2019-04-03T01:41:18.900Z,7.90
2019-04-03T01:43:49.002Z,8.00
2019-04-03T01:46:18.405Z,8.00
2019-04-03T01:48:50.617Z,8.10
2019-04-03T01:51:21.958Z,8.10
2019-04-03T01:53:51.144Z,8.10
2019-04-03T01:56:20.393Z,8.10
2019-04-03T01:58:49.622Z,8.00
2019-04-03T02:01:18.854Z,8.10
2019-04-03T02:03:48.179Z,8.10
2019-04-03T02:06:20.112Z,8.00
2019-04-03T02:08:49.940Z,8.00
2019-04-03T02:11:19.260Z,8.20
2019-04-03T02:13:51.238Z,8.10
2019-04-03T02:16:28.163Z,8.10
2019-04-03T02:18:57.472Z,8.00
2019-04-03T02:21:27.693Z,8.00
2019-04-03T02:23:57.720Z,8.00
2019-04-03T02:26:32.712Z,7.90
2019-04-03T02:29:12.235Z,8.00
2019-04-03T02:31:43.858Z,8.00
2019-04-03T02:34:13.075Z,7.90
2019-04-03T02:36:44.917Z,7.90
2019-04-03T02:39:16.814Z,7.90
2019-04-03T02:41:49.668Z,7.90
2019-04-03T02:44:19.997Z,8.00
2019-04-03T02:46:49.290Z,8.00
2019-04-03T02:49:18.781Z,8.00
2019-04-03T02:51:53.893Z,8.00
2019-04-03T02:54:34.682Z,8.00
2019-04-03T02:57:02.752Z,7.80
2019-04-03T02:59:33.069Z,7.80
2019-04-03T03:02:02.683Z,7.80
2019-04-03T03:04:38.315Z,7.80
2019-04-03T03:07:10.451Z,7.80
2019-04-03T03:09:39.890Z,7.80
2019-04-03T03:12:09.190Z,7.80
2019-04-03T03:14:39.813Z,7.80
2019-04-03T03:17:09.320Z,7.80
2019-04-03T03:19:41.629Z,7.90
2019-04-03T03:22:10.903Z,7.80
2019-04-03T03:24:40.121Z,7.90
2019-04-03T03:27:09.909Z,7.90
2019-04-03T03:29:39.722Z,7.90
2019-04-03T03:32:17.713Z,7.80
2019-04-03T03:34:53.818Z,7.80
2019-04-03T03:37:12.650Z,7.80
2019-04-03T03:39:44.675Z,7.80
2019-04-03T03:42:18.534Z,7.80
2019-04-03T03:44:48.851Z,7.80
2019-04-03T03:47:20.811Z,8.00
2019-04-03T03:49:50.902Z,7.90
2019-04-03T03:52:23.635Z,7.90
2019-04-03T03:54:52.968Z,8.00
2019-04-03T03:57:24.545Z,8.00
2019-04-03T03:59:53.946Z,8.00
2019-04-03T04:02:23.196Z,8.10
2019-04-03T04:04:53.580Z,8.10
2019-04-03T04:07:22.963Z,8.10
2019-04-03T04:09:54.113Z,8.20
2019-04-03T04:12:23.421Z,8.20
2019-04-03T04:14:56.418Z,8.30
2019-04-03T04:17:24.563Z,8.30
2019-04-03T04:19:55.814Z,8.30
2019-04-03T04:22:27.410Z,8.40
2019-04-03T04:24:57.162Z,8.40
2019-04-03T04:27:28.118Z,8.30
2019-04-03T04:29:57.396Z,8.30
2019-04-03T04:32:26.689Z,8.30
2019-04-03T04:34:55.986Z,8.30
2019-04-03T04:37:28.306Z,8.20
2019-04-03T04:39:57.726Z,8.20
2019-04-03T04:42:28.508Z,8.20
2019-04-03T04:44:57.870Z,8.20
2019-04-03T04:47:27.145Z,8.30
2019-04-03T04:49:56.429Z,8.30
2019-04-03T04:52:27.681Z,8.30
2019-04-03T04:54:57.447Z,8.30
2019-04-03T04:57:26.701Z,8.30
2019-04-03T04:59:59.752Z,8.20
2019-04-03T05:02:29.307Z,8.20
2019-04-03T05:04:58.667Z,8.20
2019-04-03T05:07:30.908Z,8.30
2019-04-03T05:10:02.298Z,8.30
2019-04-03T05:12:31.877Z,8.30
2019-04-03T05:15:02.229Z,8.20
2019-04-03T05:17:32.638Z,8.10
2019-04-03T05:20:01.893Z,8.10
2019-04-03T05:22:35.457Z,8.20
2019-04-03T05:25:05.134Z,8.20
2019-04-03T05:27:34.783Z,8.20
2019-04-03T05:30:07.066Z,8.20
2019-04-03T05:32:36.406Z,8.20
2019-04-03T05:35:06.173Z,8.20
2019-04-03T05:37:35.387Z,8.20
2019-04-03T05:40:06.708Z,7.90
2019-04-03T05:42:35.985Z,7.90
2019-04-03T05:45:07.248Z,7.90
2019-04-03T05:47:39.279Z,7.90
2019-04-03T05:50:08.526Z,7.90
2019-04-03T05:52:37.758Z,8.00
2019-04-03T05:55:08.011Z,7.90
2019-04-03T05:57:38.090Z,7.90
2019-04-03T06:00:07.543Z,7.80
2019-04-03T06:02:36.934Z,7.90
2019-04-03T06:05:13.793Z,8.00
2019-04-03T06:07:43.105Z,8.10
2019-04-03T06:10:12.577Z,8.00
2019-04-03T06:12:45.933Z,7.80
2019-04-03T06:15:17.447Z,7.70
2019-04-03T06:17:47.148Z,7.90
2019-04-03T06:20:17.620Z,7.80
2019-04-03T06:22:49.742Z,7.80
2019-04-03T06:25:19.674Z,7.90
2019-04-03T06:27:48.893Z,7.90
2019-04-03T06:30:18.364Z,8.00
2019-04-03T06:32:48.076Z,7.90
2019-04-03T06:35:17.368Z,7.90
2019-04-03T06:37:53.161Z,7.80
2019-04-03T06:40:22.632Z,7.80
2019-04-03T06:42:51.917Z,7.80
2019-04-03T06:45:25.447Z,7.80
2019-04-03T06:47:53.735Z,7.70
2019-04-03T06:50:22.984Z,7.70
2019-04-03T06:52:53.052Z,7.70
2019-04-03T06:55:24.766Z,7.70
2019-04-03T06:57:55.853Z,7.80
2019-04-03T07:00:25.097Z,7.90
2019-04-03T07:02:54.397Z,7.80
2019-04-03T07:05:29.451Z,7.80
2019-04-03T07:08:00.688Z,7.70
2019-04-03T07:10:29.701Z,7.70
2019-04-03T07:13:02.508Z,7.80
2019-04-03T07:15:33.060Z,7.80
2019-04-03T07:18:05.555Z,7.80
2019-04-03T07:20:33.213Z,7.80
2019-04-03T07:23:02.727Z,7.80
2019-04-03T07:25:33.939Z,7.20
2019-04-03T07:28:02.954Z,6.90
2019-04-03T07:30:32.275Z,6.90
2019-04-03T07:33:05.315Z,7.00
2019-04-03T07:35:34.108Z,6.90
2019-04-03T07:38:03.343Z,7.10
2019-04-03T07:40:33.985Z,7.30
2019-04-03T07:43:03.234Z,7.50
2019-04-03T07:45:34.074Z,7.80
2019-04-03T07:48:06.101Z,7.90
2019-04-03T07:50:36.507Z,7.90
2019-04-03T07:53:07.821Z,8.00
2019-04-03T07:55:37.123Z,8.10
2019-04-03T07:58:08.350Z,8.10
2019-04-03T08:00:39.265Z,8.20
2019-04-03T08:03:08.608Z,8.30
2019-04-03T08:05:37.822Z,8.40
2019-04-03T08:08:08.721Z,8.50
2019-04-03T08:10:38.305Z,8.70
2019-04-03T08:13:07.747Z,9.00
2019-04-03T08:15:37.016Z,9.00
2019-04-03T08:18:06.811Z,9.30
2019-04-03T08:20:36.116Z,9.10
2019-04-03T08:23:06.790Z,9.30
2019-04-03T08:25:36.427Z,9.30
2019-04-03T08:28:05.655Z,9.30
2019-04-03T08:30:34.917Z,9.30
2019-04-03T08:33:15.098Z,9.40
2019-04-03T08:35:35.990Z,9.20
2019-04-03T08:38:05.732Z,9.20
2019-04-03T08:40:35.022Z,9.30
2019-04-03T08:43:04.442Z,9.40
2019-04-03T08:45:38.498Z,9.60
2019-04-03T08:48:08.157Z,9.40
2019-04-03T08:50:44.494Z,8.60
2019-04-03T08:53:14.736Z,7.80
2019-04-03T08:55:45.897Z,7.70
2019-04-03T08:58:14.880Z,7.50
2019-04-03T09:00:44.092Z,7.60
2019-04-03T09:03:16.395Z,7.30
2019-04-03T09:05:46.568Z,7.10
2019-04-03T09:08:16.676Z,7.00
2019-04-03T09:10:45.997Z,7.00
2019-04-03T09:13:18.863Z,7.10
2019-04-03T09:15:47.005Z,7.10
2019-04-03T09:18:16.373Z,7.20
2019-04-03T09:20:48.527Z,7.40
2019-04-03T09:23:19.116Z,7.40
2019-04-03T09:25:48.300Z,7.30
2019-04-03T09:28:17.571Z,7.20
2019-04-03T09:30:47.916Z,7.40
2019-04-03T09:33:18.840Z,7.60
2019-04-03T09:35:49.239Z,7.70
2019-04-03T09:38:18.480Z,7.90
2019-04-03T09:40:48.645Z,8.20
2019-04-03T09:43:18.093Z,8.40
2019-04-03T09:45:47.324Z,8.50
2019-04-03T09:48:16.560Z,8.50
2019-04-03T09:50:47.186Z,8.40
2019-04-03T09:53:17.654Z,8.30
2019-04-03T09:55:48.913Z,8.30
2019-04-03T09:58:19.216Z,8.30
2019-04-03T10:00:49.733Z,8.30
2019-04-03T10:03:20.850Z,8.30
2019-04-03T10:05:51.215Z,8.30
2019-04-03T10:08:20.433Z,8.30
2019-04-03T10:10:51.116Z,8.40
2019-04-03T10:13:25.815Z,8.50
2019-04-03T10:15:54.184Z,8.50
2019-04-03T10:18:36.858Z,8.50
2019-04-03T10:21:07.869Z,8.60
2019-04-03T10:23:37.175Z,8.70
2019-04-03T10:26:09.765Z,8.80
2019-04-03T10:28:43.213Z,8.80
2019-04-03T10:31:12.972Z,8.90
2019-04-03T10:33:44.174Z,9.10
2019-04-03T10:36:13.432Z,9.40
2019-04-03T10:38:44.347Z,9.70
2019-04-03T10:41:13.985Z,9.50
2019-04-03T10:43:43.418Z,9.60
2019-04-03T10:46:12.686Z,9.90
2019-04-03T10:48:41.941Z,10.10
2019-04-03T10:51:13.069Z,10.30
2019-04-03T10:53:43.292Z,10.30
2019-04-03T10:56:13.966Z,10.40
2019-04-03T10:58:43.858Z,10.40
2019-04-03T11:01:13.567Z,10.40
2019-04-03T11:03:42.905Z,10.30
2019-04-03T11:06:12.116Z,10.50
2019-04-03T11:08:42.060Z,10.60
2019-04-03T11:11:11.584Z,10.80
2019-04-03T11:13:44.943Z,10.90
2019-04-03T11:16:15.095Z,10.90
2019-04-03T11:18:58.489Z,10.80
2019-04-03T11:21:19.111Z,10.70
2019-04-03T11:23:48.357Z,11.00
2019-04-03T11:26:24.461Z,11.80
2019-04-03T11:28:54.448Z,12.80
2019-04-03T11:31:28.150Z,13.10
2019-04-03T11:33:55.613Z,13.00
2019-04-03T11:36:26.930Z,13.40
2019-04-03T11:39:08.876Z,13.80
2019-04-03T11:41:26.985Z,14.00
2019-04-03T11:43:56.401Z,14.00
2019-04-03T11:46:25.669Z,14.20
2019-04-03T11:48:55.350Z,14.30
2019-04-03T11:51:24.652Z,14.90
2019-04-03T11:53:53.914Z,14.10
2019-04-03T11:56:27.154Z,13.40
2019-04-03T11:58:57.553Z,11.70
2019-04-03T12:01:27.852Z,11.10
2019-04-03T12:03:57.219Z,11.60
2019-04-03T12:06:26.469Z,11.90
2019-04-03T12:08:55.807Z,11.50
2019-04-03T12:11:25.051Z,11.20
2019-04-03T12:13:54.347Z,11.00
2019-04-03T12:16:26.649Z,10.90
2019-04-03T12:18:56.180Z,11.10
2019-04-03T12:21:26.468Z,11.40
2019-04-03T12:23:57.766Z,11.70
2019-04-03T12:26:26.620Z,11.70
2019-04-03T12:28:56.886Z,11.70
2019-04-03T12:31:31.904Z,11.60
2019-04-03T12:34:05.237Z,11.70
2019-04-03T12:36:35.114Z,11.90
2019-04-03T12:39:07.454Z,12.00
2019-04-03T12:41:37.919Z,12.70
2019-04-03T12:44:08.328Z,13.20
2019-04-03T12:46:40.733Z,13.80
2019-04-03T12:49:08.787Z,14.00
2019-04-03T12:51:38.242Z,14.00
2019-04-03T12:54:07.510Z,13.90
2019-04-03T12:56:37.019Z,13.60
2019-04-03T12:59:08.844Z,13.20
2019-04-03T13:01:37.243Z,12.80
2019-04-03T13:04:13.902Z,12.40
2019-04-03T13:06:43.473Z,12.20
2019-04-03T13:09:12.918Z,12.00
2019-04-03T13:11:42.247Z,11.80
2019-04-03T13:14:22.479Z,11.70
2019-04-03T13:16:46.452Z,12.20
2019-04-03T13:19:15.984Z,12.20
2019-04-03T13:21:47.468Z,12.50
2019-04-03T13:24:17.828Z,12.50
2019-04-03T13:26:48.078Z,12.90
2019-04-03T13:29:17.543Z,13.80
2019-04-03T13:31:48.567Z,14.80
2019-04-03T13:34:17.801Z,15.10
2019-04-03T13:36:51.358Z,15.30
2019-04-03T13:39:20.124Z,15.50
2019-04-03T13:41:52.418Z,16.10
2019-04-03T13:44:21.716Z,16.00
2019-04-03T13:46:52.936Z,16.00
2019-04-03T13:49:22.762Z,15.20
2019-04-03T13:51:52.937Z,15.10
2019-04-03T13:54:26.595Z,15.00
2019-04-03T13:56:56.407Z,14.80
2019-04-03T13:59:27.246Z,14.50
2019-04-03T14:01:59.930Z,14.20
2019-04-03T14:04:29.137Z,13.60
2019-04-03T14:06:58.508Z,13.20
2019-04-03T14:09:27.775Z,12.80
2019-04-03T14:11:59.822Z,12.90
2019-04-03T14:14:31.686Z,12.90
2019-04-03T14:17:06.094Z,12.60
2019-04-03T14:19:43.263Z,12.40
2019-04-03T14:22:09.339Z,12.40
2019-04-03T14:24:44.573Z,12.40
2019-04-03T14:27:19.365Z,12.50
2019-04-03T14:29:46.709Z,12.50
2019-04-03T14:32:21.785Z,12.40
2019-04-03T14:34:51.481Z,12.20
2019-04-03T14:37:25.870Z,12.00
2019-04-03T14:39:51.931Z,12.20
2019-04-03T14:42:23.939Z,12.30
2019-04-03T14:44:53.405Z,12.20
2019-04-03T14:47:23.435Z,12.00
2019-04-03T14:49:53.249Z,12.00
2019-04-03T14:52:22.743Z,12.10
2019-04-03T14:54:52.160Z,12.00
2019-04-03T14:57:23.708Z,12.20
2019-04-03T14:59:53.349Z,12.30
2019-04-03T15:02:26.286Z,12.20
2019-04-03T15:04:54.847Z,12.40
2019-04-03T15:07:24.114Z,12.60
2019-04-03T15:09:53.379Z,13.00
2019-04-03T15:12:22.650Z,13.10
2019-04-03T15:14:54.524Z,13.00
2019-04-03T15:17:24.741Z,12.70
2019-04-03T15:19:56.165Z,12.70
2019-04-03T15:22:29.138Z,13.00
2019-04-03T15:24:58.977Z,12.90
2019-04-03T15:27:30.204Z,13.10
2019-04-03T15:30:03.934Z,13.00
2019-04-03T15:32:42.418Z,12.90
2019-04-03T15:35:11.788Z,12.90
2019-04-03T15:37:44.380Z,12.80
2019-04-03T15:40:15.277Z,12.50
2019-04-03T15:42:44.596Z,12.20
2019-04-03T15:45:13.862Z,11.80
2019-04-03T15:47:46.804Z,11.30
2019-04-03T15:50:16.268Z,11.00
2019-04-03T15:52:49.385Z,10.50
2019-04-03T15:55:20.836Z,10.40
2019-04-03T15:57:53.995Z,10.30
2019-04-03T16:00:28.418Z,10.30
2019-04-03T16:02:59.415Z,10.20
2019-04-03T16:05:30.480Z,10.20
2019-04-03T16:07:59.759Z,10.20
2019-04-03T16:10:30.122Z,9.90
2019-04-03T16:12:59.434Z,9.80
2019-04-03T16:15:28.893Z,9.80
2019-04-03T16:18:07.108Z,9.60
2019-04-03T16:20:40.597Z,9.40
2019-04-03T16:23:10.189Z,9.40
2019-04-03T16:25:40.275Z,9.30
2019-04-03T16:28:10.054Z,9.20
2019-04-03T16:30:52.286Z,9.20
2019-04-03T16:33:23.190Z,9.20
2019-04-03T16:35:49.774Z,9.10
2019-04-03T16:38:19.223Z,9.30
2019-04-03T16:40:48.870Z,9.20
2019-04-03T16:43:21.197Z,9.10
2019-04-03T16:45:54.060Z,9.10
2019-04-03T16:48:23.438Z,9.10
2019-04-03T16:50:52.685Z,9.10
2019-04-03T16:53:21.937Z,8.80
2019-04-03T16:55:51.209Z,8.70
2019-04-03T16:58:20.604Z,8.60
2019-04-03T17:00:50.830Z,8.50
2019-04-03T17:03:20.201Z,8.60
2019-04-03T17:05:49.492Z,8.60
2019-04-03T17:08:18.761Z,8.80
2019-04-03T17:10:48.000Z,8.90
2019-04-03T17:13:20.317Z,8.70
2019-04-03T17:15:48.140Z,8.70
2019-04-03T17:18:17.645Z,8.70
2019-04-03T17:20:50.366Z,8.90
2019-04-03T17:23:21.219Z,9.00
2019-04-03T17:25:51.659Z,9.00
2019-04-03T17:28:21.127Z,9.10
2019-04-03T17:30:51.539Z,9.10
2019-04-03T17:33:22.135Z,9.20
2019-04-03T17:35:52.102Z,9.20
2019-04-03T17:38:24.525Z,9.20
2019-04-03T17:40:53.784Z,9.10
2019-04-03T17:43:26.117Z,9.00
2019-04-03T17:45:55.526Z,9.00
2019-04-03T17:48:25.341Z,8.80
2019-04-03T17:50:54.601Z,8.70
2019-04-03T17:53:23.856Z,8.70
2019-04-03T17:55:53.281Z,8.70
2019-04-03T17:58:23.578Z,8.60
2019-04-03T18:00:57.069Z,8.80
2019-04-03T18:03:26.247Z,8.80
2019-04-03T18:06:00.108Z,8.80
2019-04-03T18:08:29.349Z,8.70
2019-04-03T18:11:01.026Z,8.50
2019-04-03T18:13:30.253Z,8.40
2019-04-03T18:16:00.370Z,8.60
2019-04-03T18:18:33.216Z,8.60
2019-04-03T18:21:01.529Z,8.70
2019-04-03T18:23:30.806Z,8.80
2019-04-03T18:26:00.261Z,8.70
2019-04-03T18:28:29.670Z,8.80
2019-04-03T18:30:59.895Z,8.70
2019-04-03T18:33:29.246Z,8.80
2019-04-03T18:36:00.194Z,8.80
2019-04-03T18:38:32.095Z,8.70
2019-04-03T18:41:04.007Z,8.60
2019-04-03T18:43:32.370Z,8.40
2019-04-03T18:46:02.639Z,8.40
2019-04-03T18:48:31.946Z,8.40
2019-04-03T18:51:01.294Z,8.30
2019-04-03T18:53:31.683Z,8.30
2019-04-03T18:56:00.960Z,8.30
2019-04-03T18:58:30.323Z,8.30
2019-04-03T19:00:59.877Z,8.30
2019-04-03T19:03:30.646Z,8.30
2019-04-03T19:06:00.071Z,8.20
2019-04-03T19:08:30.566Z,8.20
2019-04-03T19:11:02.596Z,8.20
2019-04-03T19:13:36.474Z,8.20
2019-04-03T19:16:08.490Z,8.20
2019-04-03T19:18:37.877Z,8.20
2019-04-03T19:21:07.137Z,8.30
2019-04-03T19:23:37.400Z,8.30
2019-04-03T19:26:07.320Z,8.30
2019-04-03T19:28:36.662Z,8.30
2019-04-03T19:31:08.447Z,8.40
2019-04-03T19:33:40.400Z,8.50
2019-04-03T19:36:09.647Z,8.40
2019-04-03T19:38:38.912Z,8.40
2019-04-03T19:41:08.282Z,8.30
2019-04-03T19:43:37.581Z,8.10
2019-04-03T19:46:07.033Z,8.00
2019-04-03T19:48:36.355Z,7.90
2019-04-03T19:51:05.719Z,7.90
2019-04-03T19:53:35.922Z,7.90
2019-04-03T19:56:05.455Z,7.80
2019-04-03T19:58:34.791Z,7.80
2019-04-03T20:01:07.518Z,7.80
2019-04-03T20:03:36.051Z,7.70
2019-04-03T20:06:06.274Z,7.60
2019-04-03T20:08:37.259Z,7.30
2019-04-03T20:11:06.688Z,7.20
2019-04-03T20:13:35.914Z,7.20
2019-04-03T20:16:06.338Z,7.20
2019-04-03T20:18:37.315Z,7.30
2019-04-03T20:21:06.637Z,7.20
2019-04-03T20:23:35.926Z,7.20
2019-04-03T20:26:05.289Z,7.30
2019-04-03T20:28:36.471Z,7.40
2019-04-03T20:31:06.156Z,7.50
2019-04-03T20:33:36.452Z,7.40
2019-04-03T20:36:05.826Z,7.50
2019-04-03T20:38:35.146Z,7.50
2019-04-03T20:41:04.432Z,7.60
2019-04-03T20:43:33.727Z,7.70
2019-04-03T20:46:06.225Z,7.50
2019-04-03T20:48:35.488Z,7.30
2019-04-03T20:51:08.783Z,7.20
2019-04-03T20:53:37.149Z,7.20
2019-04-03T20:56:07.504Z,7.20
2019-04-03T20:58:39.949Z,7.10
2019-04-03T21:01:08.999Z,7.10
2019-04-03T21:03:38.288Z,7.00
2019-04-03T21:06:10.613Z,7.00
2019-04-03T21:08:43.436Z,6.90
2019-04-03T21:11:12.685Z,7.10
2019-04-03T21:13:42.030Z,7.10
2019-04-03T21:16:14.919Z,7.30
2019-04-03T21:18:45.661Z,7.30
2019-04-03T21:21:14.979Z,7.20
2019-04-03T21:23:44.507Z,7.30
2019-04-03T21:26:13.744Z,7.30
2019-04-03T21:28:44.769Z,7.40
2019-04-03T21:31:13.919Z,7.50
2019-04-03T21:33:46.242Z,7.40
2019-04-03T21:36:15.497Z,7.20
2019-04-03T21:38:44.794Z,7.10
2019-04-03T21:41:14.076Z,7.20
2019-04-03T21:43:43.328Z,7.20
2019-04-03T21:46:13.530Z,7.00
2019-04-03T21:48:44.489Z,7.00
2019-04-03T21:51:13.825Z,7.10
2019-04-03T21:53:43.097Z,7.00
2019-04-03T21:56:12.328Z,6.90
2019-04-03T21:58:41.588Z,6.90
2019-04-03T22:01:21.604Z,7.00
2019-04-03T22:03:52.563Z,6.90
2019-04-03T22:06:26.596Z,6.90
2019-04-03T22:08:59.679Z,6.90
2019-04-03T22:11:27.953Z,6.70
2019-04-03T22:14:02.946Z,6.60
2019-04-03T22:16:35.896Z,6.60
2019-04-03T22:19:05.332Z,6.60
2019-04-03T22:21:34.586Z,6.90
2019-04-03T22:24:06.709Z,6.80
2019-04-03T22:26:35.671Z,6.80
2019-04-03T22:29:06.144Z,6.70
2019-04-03T22:31:35.327Z,6.50
2019-04-03T22:34:08.392Z,6.70
2019-04-03T22:36:36.977Z,6.60
2019-04-03T22:39:08.056Z,6.40
2019-04-03T22:41:37.201Z,6.30
2019-04-03T22:44:07.353Z,6.20
2019-04-03T22:52:32.093Z,6.40
2019-04-03T22:55:01.305Z,6.50
2019-04-03T22:57:30.556Z,6.50
2019-04-03T23:00:04.157Z,6.50
2019-04-03T23:02:36.556Z,6.40
2019-04-03T23:05:07.460Z,6.50
2019-04-03T23:07:40.293Z,6.40
2019-04-03T23:10:09.518Z,6.50
2019-04-03T23:12:39.710Z,6.50
2019-04-03T23:15:09.685Z,6.60
2019-04-03T23:17:39.838Z,6.60
2019-04-03T23:20:09.092Z,6.60
2019-04-03T23:22:38.346Z,6.40
2019-04-03T23:25:07.580Z,6.40
2019-04-03T23:27:36.788Z,6.40
2019-04-03T23:30:06.449Z,6.40
2019-04-03T23:32:35.655Z,6.50
2019-04-03T23:35:06.151Z,6.60
2019-04-03T23:37:38.787Z,6.60
2019-04-03T23:40:08.081Z,6.50
2019-04-03T23:42:37.911Z,6.50
2019-04-03T23:45:13.462Z,6.40
2019-04-03T23:47:46.701Z,6.40
2019-04-03T23:50:14.512Z,6.40
2019-04-03T23:52:47.073Z,6.40
2019-04-03T23:55:16.335Z,6.40
2019-04-03T23:57:45.607Z,6.30
